CheckWX is a tool to help pilots better visualize weather data.  It is not intended as a substitute for an official pre-flight weather briefing.

01:07:37 UTC

MMMM TAF
General Francisco J. Mujica International Airport
Morelia, Mexico
TAF MMMM 232310Z 2400/2506 18005KT 6SM HZ BKN030 BKN200 FM240400 16005KT 6SM HZ BKN100 BKN200 FM241800 23010KT P6SM SCT030 BKN100 BKN200 FM250400 23005KT 6SM HZ BKN100 BKN300

Feb-24@
00:00 UTC

Feb-24 @ 00:00 UTC

Feb-24@
04:00 UTC

Feb-24 @ 04:00 UTC

TAF MMMM 232310Z 2400/2506 18005KT 6SM HZ BKN030 BKN200
Wind
  • 180° at 5 KTS
Conditions
Haze
Cloud Levels
  • Broken at 3,000' AGL
  • Broken at 20,000' AGL

Feb-24@
04:00 UTC

Feb-24 @ 04:00 UTC

Feb-24@
18:00 UTC

Feb-24 @ 18:00 UTC

FM240400 16005KT 6SM HZ BKN100 BKN200

From

From Standard forecast or significant change

Wind
  • 160° at 5 KTS
Conditions
Haze
Cloud Levels
  • Broken at 10,000' AGL
  • Broken at 20,000' AGL

Feb-24@
18:00 UTC

Feb-24 @ 18:00 UTC

Feb-25@
04:00 UTC

Feb-25 @ 04:00 UTC

FM241800 23010KT P6SM SCT030 BKN100 BKN200

From

From Standard forecast or significant change

Wind
  • 230° at 10 KTS
Cloud Levels
  • Scattered at 3,000' AGL
  • Broken at 10,000' AGL
  • Broken at 20,000' AGL

Feb-25@
04:00 UTC

Feb-25 @ 04:00 UTC

Feb-25@
06:00 UTC

Feb-25 @ 06:00 UTC

FM250400 23005KT 6SM HZ BKN100 BKN300

From

From Standard forecast or significant change

Wind
  • 230° at 5 KTS
Conditions
Haze
Cloud Levels
  • Broken at 10,000' AGL
  • Broken at 30,000' AGL